Time;durP1;ratioP1;P1;durP2;ratioP2;P2;SDS_P1;SDS_P2;PMS_P1;PMS_P2;Temp;Humidity;BMP_temperature;BMP_pressure;BME280_temperature;BME280_humidity;BME280_pressure;Samples;Min_cycle;Max_cycle;Signal;HPM_P1;HPM_P2
2023/04/20 00:02:14;;;;;;;0.00;0.00;;;;;;;6.34;64.73;101040.91;6219272;22;20331;-76
2023/04/20 00:04:39;;;;;;;0.00;0.00;;;;;;;6.42;64.73;101048.75;6191250;22;20011;-77
2023/04/20 00:07:07;;;;;;;0.00;0.00;;;;;;;6.39;64.81;101053.81;6244115;22;20012;-78
2023/04/20 00:09:35;;;;;;;0.00;0.00;;;;;;;6.13;65.48;101030.41;6237905;22;20109;-77
2023/04/20 00:12:01;;;;;;;0.00;0.00;;;;;;;6.09;65.09;101024.63;6244749;22;20431;-78
2023/04/20 00:14:26;;;;;;;0.03;0.03;;;;;;;5.95;65.23;101015.69;6214053;22;20018;-77
2023/04/20 00:17:02;;;;;;;0.00;0.00;;;;;;;5.88;65.96;101017.63;6245720;22;20038;-77
2023/04/20 00:19:31;;;;;;;0.00;0.00;;;;;;;6.08;67.14;101020.22;6242738;22;20448;-77
2023/04/20 00:21:57;;;;;;;0.00;0.00;;;;;;;6.09;65.62;100994.75;6245761;22;20004;-78
2023/04/20 00:24:22;;;;;;;0.00;0.00;;;;;;;6.33;65.65;101035.69;6271456;22;20077;-76
2023/04/20 00:26:48;;;;;;;0.00;0.00;;;;;;;6.23;65.22;101015.28;6215617;22;20082;-77
2023/04/20 00:29:13;;;;;;;0.00;0.00;;;;;;;6.32;65.57;101018.53;6195701;22;20006;-76
2023/04/20 00:31:39;;;;;;;0.00;0.00;;;;;;;6.43;65.36;101031.41;6190456;22;19996;-76
2023/04/20 00:34:04;;;;;;;0.00;0.00;;;;;;;6.36;65.14;101027.09;6195384;22;20003;-76
2023/04/20 00:36:30;;;;;;;0.00;0.00;;;;;;;6.29;64.57;101036.13;6190699;22;20018;-76
2023/04/20 00:38:55;;;;;;;0.00;0.00;;;;;;;6.05;65.45;101018.78;6220611;22;20338;-75
2023/04/20 00:41:21;;;;;;;0.00;0.00;;;;;;;5.91;65.38;101017.19;6245521;22;20035;-77
2023/04/20 00:43:51;;;;;;;0.00;0.00;;;;;;;5.72;66.15;101009.00;6216259;22;20023;-77
2023/04/20 00:46:17;;;;;;;0.00;0.00;;;;;;;5.48;66.10;100997.03;6245560;22;20003;-77
2023/04/20 00:48:43;;;;;;;0.00;0.00;;;;;;;5.54;67.01;101022.47;6242501;22;20430;-76
2023/04/20 00:51:08;;;;;;;0.00;0.00;;;;;;;5.50;67.62;101021.22;6218098;22;20078;-77
2023/04/20 00:53:34;;;;;;;0.00;0.00;;;;;;;5.39;67.11;101012.72;6195079;22;20280;-76
2023/04/20 00:56:03;;;;;;;0.00;0.00;;;;;;;5.32;67.99;101008.41;6214590;22;20008;-77
2023/04/20 00:58:30;;;;;;;0.00;0.00;;;;;;;5.19;67.97;101010.13;6244727;22;20004;-76
2023/04/20 01:00:56;;;;;;;0.00;0.00;;;;;;;5.14;67.39;101006.38;6193121;22;20455;-77
2023/04/20 01:03:30;;;;;;;0.00;0.00;;;;;;;5.05;68.20;101003.09;6221063;22;20365;-77
2023/04/20 01:05:56;;;;;;;;;;;;;;;4.96;67.85;101010.63;6243566;22;20057;-76
2023/04/20 01:08:26;;;;;;;0.00;0.00;;;;;;;4.86;68.74;101015.66;6273491;22;20265;-76
2023/04/20 01:10:51;;;;;;;0.00;0.00;;;;;;;4.75;68.38;101008.22;6241793;22;20415;-77
2023/04/20 01:13:17;;;;;;;0.03;0.03;;;;;;;4.69;69.44;100993.66;6194562;22;20023;-76
2023/04/20 01:15:45;;;;;;;0.00;0.00;;;;;;;4.67;68.70;100980.31;6242360;22;20414;-77
2023/04/20 01:18:13;;;;;;;0.00;0.00;;;;;;;4.53;68.90;100959.72;6242661;22;20004;-77
2023/04/20 01:20:44;;;;;;;0.00;0.00;;;;;;;4.58;69.61;100981.56;6218597;22;20014;-77
2023/04/20 01:23:09;;;;;;;0.00;0.00;;;;;;;4.55;70.16;100987.41;6217155;22;20004;-76
2023/04/20 01:25:35;;;;;;;0.00;0.00;;;;;;;4.46;70.11;100975.97;6271799;22;20008;-78
2023/04/20 01:28:00;;;;;;;0.00;0.00;;;;;;;4.52;70.40;100987.84;6215763;22;20485;-77
2023/04/20 01:30:26;;;;;;;0.00;0.00;;;;;;;4.46;70.02;100984.09;6229544;22;20004;-76
2023/04/20 01:32:52;;;;;;;0.00;0.00;;;;;;;4.35;70.48;100955.81;6221046;22;20011;-78
2023/04/20 01:35:17;;;;;;;0.00;0.00;;;;;;;4.58;70.70;100969.91;6216880;22;20337;-79
2023/04/20 01:37:43;;;;;;;0.00;0.00;;;;;;;4.55;70.25;100963.03;6245673;22;20006;-78
2023/04/20 01:40:10;;;;;;;0.00;0.00;;;;;;;4.62;71.51;100977.41;6242632;22;20012;-78
2023/04/20 01:42:35;;;;;;;0.00;0.00;;;;;;;4.69;70.97;100972.78;6220115;22;20008;-78
2023/04/20 01:45:01;;;;;;;0.00;0.00;;;;;;;4.61;70.99;100940.50;6246114;22;20080;-78
2023/04/20 01:47:26;;;;;;;0.00;0.00;;;;;;;4.73;71.23;100956.91;6217405;22;20015;-78
2023/04/20 01:49:52;;;;;;;0.00;0.00;;;;;;;4.68;70.62;100957.56;6194596;22;20426;-79
2023/04/20 01:52:17;;;;;;;0.00;0.00;;;;;;;4.60;70.96;100929.88;6191851;22;20004;-78
2023/04/20 01:54:45;;;;;;;0.00;0.00;;;;;;;4.83;70.62;100972.75;6195151;22;20011;-77
2023/04/20 01:57:10;;;;;;;0.00;0.00;;;;;;;4.76;70.75;100928.56;6220154;22;20011;-79
2023/04/20 01:59:46;;;;;;;0.00;0.00;;;;;;;4.70;70.16;100922.97;6242092;22;20012;-79
2023/04/20 02:02:14;;;;;;;0.00;0.00;;;;;;;4.86;70.99;100942.50;6219008;22;20018;-78
2023/04/20 02:04:39;;;;;;;0.00;0.00;;;;;;;4.94;71.08;100953.09;6240416;22;20322;-76
2023/04/20 02:07:04;;;;;;;0.00;0.00;;;;;;;4.96;70.55;100950.16;6196056;22;20683;-77
2023/04/20 02:09:30;;;;;;;0.00;0.00;;;;;;;5.11;70.97;100948.03;6216107;22;20003;-77
2023/04/20 02:11:55;;;;;;;0.00;0.00;;;;;;;5.17;70.70;100957.13;6218341;22;20054;-77
2023/04/20 02:14:21;;;;;;;0.00;0.00;;;;;;;5.27;70.82;100946.69;6253933;22;20030;-76
2023/04/20 02:16:46;;;;;;;0.00;0.00;;;;;;;5.38;70.56;100954.09;6220475;22;20039;-77
2023/04/20 02:19:12;;;;;;;0.00;0.00;;;;;;;5.31;70.52;100925.38;6243753;22;20007;-77
2023/04/20 02:21:37;;;;;;;0.00;0.00;;;;;;;5.45;70.65;100942.38;6189092;22;20035;-77
2023/04/20 02:24:03;;;;;;;0.00;0.00;;;;;;;5.35;70.26;100948.28;6246512;22;20448;-76
2023/04/20 02:26:28;;;;;;;0.00;0.00;;;;;;;5.27;70.78;100945.84;6190066;22;20138;-77
2023/04/20 02:28:53;;;;;;;0.00;0.00;;;;;;;5.22;71.24;100949.19;6245860;22;20073;-75
2023/04/20 02:31:19;;;;;;;0.00;0.00;;;;;;;5.19;70.65;100950.47;6215459;22;19999;-77
2023/04/20 02:33:46;;;;;;;0.00;0.00;;;;;;;5.13;70.83;100955.94;6193924;22;20007;-78
2023/04/20 02:36:12;;;;;;;0.00;0.00;;;;;;;4.96;71.38;100939.34;6244699;22;20039;-77
2023/04/20 02:38:39;;;;;;;0.00;0.00;;;;;;;4.81;71.86;100934.19;6238974;22;20014;-78
2023/04/20 02:41:05;;;;;;;0.00;0.00;;;;;;;4.92;72.15;100959.78;6243768;22;20008;-76
2023/04/20 02:43:32;;;;;;;0.00;0.00;;;;;;;4.86;72.50;100958.75;6243404;22;20090;-77
2023/04/20 02:45:58;;;;;;;0.00;0.00;;;;;;;4.81;72.02;100958.59;6190664;22;20000;-77
2023/04/20 02:48:26;;;;;;;0.00;0.00;;;;;;;4.74;72.84;100941.50;6194540;22;20011;-76
2023/04/20 02:50:54;;;;;;;0.00;0.00;;;;;;;4.71;72.49;100953.59;6261281;22;20008;-76
2023/04/20 02:53:20;;;;;;;0.00;0.00;;;;;;;4.65;73.13;100949.88;6240826;22;20046;-76
2023/04/20 02:55:46;;;;;;;0.00;0.00;;;;;;;4.54;73.20;100948.66;6189004;22;20016;-76
2023/04/20 02:58:11;;;;;;;0.00;0.00;;;;;;;4.51;74.14;100949.09;6219905;22;20003;-76
2023/04/20 03:00:36;;;;;;;0.00;0.00;;;;;;;4.54;73.88;100955.94;6265671;22;20137;-75
2023/04/20 03:03:02;;;;;;;0.00;0.00;;;;;;;4.57;74.34;100958.25;6269559;22;20045;-75
2023/04/20 03:05:28;;;;;;;0.00;0.00;;;;;;;4.52;73.89;100958.03;6219512;22;20015;-75
2023/04/20 03:07:53;;;;;;;0.00;0.00;;;;;;;4.52;74.08;100960.75;6190311;22;20003;-75
2023/04/20 03:10:19;;;;;;;0.00;0.00;;;;;;;4.45;74.33;100949.09;6213932;22;20076;-75
2023/04/20 03:12:44;;;;;;;0.00;0.00;;;;;;;4.42;74.83;100934.09;6220964;22;20051;-75
2023/04/20 03:15:10;;;;;;;0.00;0.00;;;;;;;4.44;75.14;100940.16;6193168;22;20106;-76
2023/04/20 03:17:35;;;;;;;0.00;0.00;;;;;;;4.51;75.05;100959.94;6213458;22;20011;-76
2023/04/20 03:20:00;;;;;;;0.00;0.00;;;;;;;4.40;74.91;100947.03;6220937;22;20012;-75
2023/04/20 03:22:26;;;;;;;0.00;0.00;;;;;;;4.28;75.60;100938.75;6239324;22;20016;-76
2023/04/20 03:24:54;;;;;;;0.00;0.00;;;;;;;4.31;75.95;100951.03;6270810;22;19999;-77
2023/04/20 03:27:19;;;;;;;0.00;0.00;;;;;;;4.13;76.13;100938.13;6240382;22;20007;-77
2023/04/20 03:29:47;;;;;;;0.00;0.00;;;;;;;4.17;76.95;100953.75;6219704;22;20429;-77
2023/04/20 03:32:15;;;;;;;0.00;0.00;;;;;;;3.86;77.25;100934.66;6240827;22;20015;-76
2023/04/20 03:34:41;;;;;;;0.00;0.00;;;;;;;3.84;77.58;100954.63;6244117;22;20010;-76
2023/04/20 03:37:06;;;;;;;0.00;0.00;;;;;;;3.88;78.05;100965.84;6216088;22;20015;-76
2023/04/20 03:39:31;;;;;;;0.00;0.00;;;;;;;3.89;77.55;100962.09;6270212;22;20086;-78
2023/04/20 03:41:58;;;;;;;0.00;0.00;;;;;;;3.78;78.50;100949.19;6245356;22;20007;-76
2023/04/20 03:44:31;;;;;;;0.00;0.00;;;;;;;3.83;78.82;100960.22;6191043;22;20019;-75
2023/04/20 03:46:59;;;;;;;0.00;0.00;;;;;;;3.73;78.94;100946.28;6197602;22;20011;-76
2023/04/20 03:49:25;;;;;;;0.00;0.00;;;;;;;3.79;78.79;100950.88;6214671;22;20377;-77
2023/04/20 03:51:50;;;;;;;0.00;0.00;;;;;;;3.66;79.70;100951.69;6217346;22;20008;-76
2023/04/20 03:54:16;;;;;;;0.00;0.00;;;;;;;3.65;79.35;100942.75;6239856;22;20011;-75
2023/04/20 03:56:43;;;;;;;0.00;0.00;;;;;;;3.57;79.78;100937.53;6218876;22;20442;-75
2023/04/20 03:59:09;;;;;;;0.00;0.00;;;;;;;3.55;80.01;100947.75;6219445;22;20346;-76
2023/04/20 04:01:36;;;;;;;0.00;0.00;;;;;;;3.53;80.06;100946.28;6215405;22;20004;-76
2023/04/20 04:04:01;;;;;;;0.00;0.00;;;;;;;3.53;80.49;100947.09;6194151;22;20015;-77
2023/04/20 04:06:37;;;;;;;0.00;0.00;;;;;;;3.51;81.49;100960.00;6215554;22;20012;-77
2023/04/20 04:09:02;;;;;;;0.00;0.00;;;;;;;3.28;80.92;100941.44;6220931;22;20090;-77
2023/04/20 04:11:31;;;;;;;0.00;0.00;;;;;;;3.09;81.59;100932.25;6239738;22;20122;-76
2023/04/20 04:13:57;;;;;;;0.00;0.00;;;;;;;3.11;81.98;100943.69;6243628;22;20213;-76
2023/04/20 04:16:22;;;;;;;0.00;0.00;;;;;;;3.01;81.89;100937.84;6240153;22;19999;-77
2023/04/20 04:18:50;;;;;;;0.00;0.00;;;;;;;3.09;82.49;100970.09;6218430;22;20110;-78
2023/04/20 04:21:33;;;;;;;0.00;0.00;;;;;;;2.88;83.05;100944.88;6243496;22;20087;-76
2023/04/20 04:24:02;;;;;;;0.00;0.00;;;;;;;3.02;83.63;100961.13;6243062;22;20031;-76
2023/04/20 04:26:27;;;;;;;0.00;0.00;;;;;;;2.94;83.90;100949.47;6244503;22;20425;-76
2023/04/20 04:29:00;;;;;;;0.00;0.00;;;;;;;2.88;83.96;100939.47;6240485;22;20085;-76
2023/04/20 04:31:26;;;;;;;0.00;0.00;;;;;;;3.13;84.17;100974.88;6244489;22;20085;-75
2023/04/20 04:33:51;;;;;;;0.00;0.00;;;;;;;3.07;84.71;100964.06;6265328;22;20008;-76
2023/04/20 04:36:21;;;;;;;0.10;0.10;;;;;;;3.00;84.49;100960.50;6193722;22;20468;-76
2023/04/20 04:38:47;;;;;;;0.00;0.00;;;;;;;3.03;84.92;100979.84;6238351;22;20037;-77
2023/04/20 04:41:13;;;;;;;0.00;0.00;;;;;;;2.89;84.64;100968.16;6193471;22;20014;-76
2023/04/20 04:43:39;;;;;;;0.00;0.00;;;;;;;2.79;85.04;100968.53;6190048;22;20003;-75
2023/04/20 04:46:09;;;;;;;0.00;0.00;;;;;;;2.75;85.83;100967.25;6217293;22;20004;-77
2023/04/20 04:48:36;;;;;;;0.10;0.10;;;;;;;2.79;86.02;100973.13;6218445;22;20023;-76
2023/04/20 04:51:02;;;;;;;0.10;0.10;;;;;;;2.76;85.91;100968.09;6237000;22;20000;-76
2023/04/20 04:53:28;;;;;;;0.00;0.00;;;;;;;2.65;86.06;100949.78;6268996;22;20031;-77
2023/04/20 04:55:53;;;;;;;0.03;0.03;;;;;;;2.77;86.45;100975.16;6238593;22;20011;-76
2023/04/20 04:58:19;;;;;;;0.00;0.00;;;;;;;2.75;86.69;100977.25;6216846;22;20014;-78
2023/04/20 05:00:44;;;;;;;0.00;0.00;;;;;;;2.70;86.96;100975.16;6266739;22;20046;-77
2023/04/20 05:03:10;;;;;;;0.10;0.10;;;;;;;2.56;87.28;100960.72;6194275;22;20090;-78
2023/04/20 05:05:35;;;;;;;0.00;0.00;;;;;;;2.44;87.80;100943.44;6220248;22;20018;-76
2023/04/20 05:08:00;;;;;;;0.00;0.00;;;;;;;2.60;87.66;100970.09;6215400;22;19999;-77
2023/04/20 05:10:26;;;;;;;0.00;0.00;;;;;;;2.65;88.27;100976.78;6219121;22;20004;-81
2023/04/20 05:12:52;;;;;;;0.03;0.03;;;;;;;2.55;87.93;100956.34;6214928;22;20039;-78
2023/04/20 05:15:18;;;;;;;0.10;0.10;;;;;;;2.71;88.23;100976.78;6191644;22;20011;-77
2023/04/20 05:17:50;;;;;;;0.00;0.00;;;;;;;2.72;88.10;100977.66;6241071;22;20010;-77
2023/04/20 05:20:16;;;;;;;0.00;0.00;;;;;;;2.80;88.30;100982.84;6218824;22;20028;-76
2023/04/20 05:22:42;;;;;;;0.00;0.00;;;;;;;2.73;88.41;100963.09;6245478;22;20057;-77
2023/04/20 05:25:08;;;;;;;0.00;0.00;;;;;;;2.73;88.29;100963.09;6268217;22;20004;-76
2023/04/20 05:27:34;;;;;;;0.00;0.00;;;;;;;2.85;88.84;100982.25;6218691;22;20010;-77
2023/04/20 05:29:59;;;;;;;0.00;0.00;;;;;;;2.92;88.41;100983.13;6192289;22;20003;-75
2023/04/20 05:32:25;;;;;;;0.00;0.00;;;;;;;2.93;88.22;100974.81;6244059;22;20414;-76
2023/04/20 05:34:50;;;;;;;0.00;0.00;;;;;;;3.01;88.54;100981.94;6220619;22;20012;-75
2023/04/20 05:37:16;;;;;;;0.10;0.10;;;;;;;3.05;88.38;100977.78;6240325;22;20035;-74
2023/04/20 05:39:41;;;;;;;0.10;0.10;;;;;;;3.29;88.98;100989.91;6220316;22;20008;-75
2023/04/20 05:42:07;;;;;;;0.00;0.00;;;;;;;3.35;87.78;100971.22;6239998;22;20007;-75
2023/04/20 05:44:35;;;;;;;0.03;0.03;;;;;;;3.42;87.99;100966.66;6272089;22;20083;-76
2023/04/20 05:47:01;;;;;;;0.00;0.00;;;;;;;3.53;88.08;100984.94;6191814;22;20011;-76
2023/04/20 05:49:26;;;;;;;0.00;0.00;;;;;;;3.66;87.93;100982.28;6243044;22;20034;-76
2023/04/20 05:51:52;;;;;;;0.00;0.00;;;;;;;3.79;87.85;100992.25;6193677;22;20497;-74
2023/04/20 05:54:17;;;;;;;0.00;0.00;;;;;;;3.96;88.39;101003.53;6188053;22;20015;-76
2023/04/20 05:56:42;;;;;;;0.10;0.10;;;;;;;4.08;87.60;101003.72;6190545;22;20307;-75
2023/04/20 05:59:08;;;;;;;0.00;0.00;;;;;;;4.21;86.94;100997.47;6213941;22;20034;-75
2023/04/20 06:01:33;;;;;;;0.00;0.00;;;;;;;4.33;87.07;100995.78;6192675;22;20011;-77
2023/04/20 06:03:59;;;;;;;0.10;0.10;;;;;;;4.52;86.47;100999.50;6215897;22;20386;-75
2023/04/20 06:06:25;;;;;;;0.00;0.00;;;;;;;4.69;85.82;101010.72;6193512;22;20015;-75
2023/04/20 06:08:51;;;;;;;0.10;0.10;;;;;;;4.67;85.22;101012.81;6243166;22;20034;-77
2023/04/20 06:11:16;;;;;;;0.00;0.00;;;;;;;4.72;85.54;101010.28;6264040;22;20418;-76
2023/04/20 06:13:42;;;;;;;0.00;0.00;;;;;;;4.78;85.26;101013.22;6241981;23;20011;-75
2023/04/20 06:16:09;;;;;;;0.00;0.00;;;;;;;4.84;85.38;101012.34;6185242;23;20347;-76
2023/04/20 06:18:35;;;;;;;0.00;0.00;;;;;;;4.90;85.51;100989.81;6189215;23;20015;-77
2023/04/20 06:21:02;;;;;;;0.00;0.00;;;;;;;5.02;84.62;101004.38;6213649;23;20095;-75
2023/04/20 06:23:27;;;;;;;0.00;0.00;;;;;;;5.10;84.03;100999.75;6185301;23;20015;-74
2023/04/20 06:25:59;;;;;;;0.00;0.00;;;;;;;5.22;84.19;100998.00;6214491;23;20016;-75
2023/04/20 06:28:24;;;;;;;0.00;0.00;;;;;;;5.52;84.40;101005.53;6209954;23;20533;-74
2023/04/20 06:30:50;;;;;;;0.00;0.00;;;;;;;5.82;83.54;101013.91;6162072;23;19997;-76
2023/04/20 06:33:16;;;;;;;0.00;0.00;;;;;;;6.03;82.89;100998.31;6186329;23;20011;-77
2023/04/20 06:35:42;;;;;;;0.00;0.00;;;;;;;6.09;82.21;101003.72;6183339;23;20380;-76
2023/04/20 06:38:08;;;;;;;0.00;0.00;;;;;;;6.24;81.46;100987.06;6186890;23;20008;-75
2023/04/20 06:40:34;;;;;;;0.00;0.00;;;;;;;6.25;80.46;100991.47;6207536;23;20492;-76
2023/04/20 06:42:59;;;;;;;0.00;0.00;;;;;;;6.44;81.08;100994.22;6210665;23;20493;-77
2023/04/20 06:45:25;;;;;;;0.00;0.00;;;;;;;6.52;80.05;100990.38;6207831;23;20320;-75
2023/04/20 06:47:50;;;;;;;0.00;0.00;;;;;;;6.51;79.92;100975.09;6161946;23;20004;-77
2023/04/20 06:50:16;;;;;;;0.00;0.00;;;;;;;6.69;80.26;101001.44;6188576;23;20011;-78
2023/04/20 06:52:41;;;;;;;0.00;0.00;;;;;;;6.79;80.04;100985.44;6213111;23;20032;-77
2023/04/20 06:55:07;;;;;;;0.00;0.00;;;;;;;6.96;80.00;100981.06;6163460;23;20419;-77
2023/04/20 06:57:33;;;;;;;0.00;0.00;;;;;;;7.25;79.84;100984.03;6186965;23;20011;-75
2023/04/20 07:00:02;;;;;;;0.10;0.10;;;;;;;7.49;79.24;100984.97;6187924;23;20004;-78
2023/04/20 07:02:27;;;;;;;0.00;0.00;;;;;;;7.75;77.96;100988.31;6212371;23;20019;-76
2023/04/20 07:04:59;;;;;;;0.00;0.00;;;;;;;7.92;77.13;100987.66;6214296;23;20004;-75
2023/04/20 07:07:27;;;;;;;0.00;0.00;;;;;;;8.10;76.41;100990.28;6211107;23;20415;-76
2023/04/20 07:09:55;;;;;;;0.00;0.00;;;;;;;8.24;75.46;100990.06;6206568;23;20431;-76
2023/04/20 07:12:20;;;;;;;0.00;0.00;;;;;;;8.33;75.28;100978.56;6224119;22;20067;-75
2023/04/20 07:14:46;;;;;;;0.00;0.00;;;;;;;8.41;74.31;100985.56;6215017;22;20016;-76
2023/04/20 07:17:18;;;;;;;0.00;0.00;;;;;;;8.47;73.91;100961.97;6188018;22;20767;-75
2023/04/20 07:19:56;;;;;;;0.00;0.00;;;;;;;8.73;72.99;100998.81;6244242;22;20003;-74
2023/04/20 07:22:29;;;;;;;0.00;0.00;;;;;;;8.75;72.31;100974.88;6221794;22;20012;-75
2023/04/20 07:25:04;;;;;;;;;;;;;;;;;;;;;
2023/04/20 07:27:40;;;;;;;;;;;;;;;;;;;;;
2023/04/20 07:30:09;;;;;;;0.10;0.10;;;;;;;9.05;70.24;100968.38;6268643;22;20055;-76
2023/04/20 07:33:13;;;;;;;0.00;0.00;;;;;;;9.42;69.97;101008.94;6271811;22;20080;-76
2023/04/20 07:36:03;;;;;;;0.00;0.00;;;;;;;9.40;69.71;100972.88;6240165;22;20426;-75
2023/04/20 07:38:36;;;;;;;0.00;0.00;;;;;;;9.46;68.54;100952.78;6268189;22;20094;-76
2023/04/20 07:41:27;;;;;;;0.00;0.00;;;;;;;9.66;67.40;100970.59;6244738;22;20013;-76
2023/04/20 07:44:17;;;;;;;0.00;0.00;;;;;;;9.63;66.71;100969.19;6236368;22;20049;-75
2023/04/20 07:50:39;;;;;;;;;;;;;;;;;;;;;
2023/04/20 07:56:09;;;;;;;;;;;;;;;;;;;;;
2023/04/20 07:58:58;;;;;;;0.00;0.00;;;;;;;10.01;63.32;100944.94;6247459;22;20086;-77
2023/04/20 08:02:04;;;;;;;0.00;0.00;;;;;;;10.25;62.89;100984.69;6216073;22;20008;-75
2023/04/20 08:04:49;;;;;;;;;;;;;;;;;;;;;
2023/04/20 08:07:43;;;;;;;;;;;;;;;10.56;62.94;100993.38;6270310;22;20078;-76
2023/04/20 08:10:11;;;;;;;0.00;0.00;;;;;;;10.49;62.32;100946.22;6265039;22;19903;-76
2023/04/20 08:12:39;;;;;;;0.00;0.00;;;;;;;10.76;61.53;100972.81;6225665;22;20016;-76
2023/04/20 08:15:15;;;;;;;0.00;0.00;;;;;;;10.74;60.52;100953.13;6184497;23;20427;-75
2023/04/20 08:17:43;;;;;;;0.00;0.00;;;;;;;10.91;59.91;100964.81;6208789;23;20452;-76
2023/04/20 08:20:09;;;;;;;0.00;0.00;;;;;;;10.89;59.58;100942.34;6211920;23;20000;-76
2023/04/20 08:22:35;;;;;;;0.00;0.00;;;;;;;11.15;58.83;100978.22;6213001;23;20035;-76
2023/04/20 08:25:00;;;;;;;0.00;0.00;;;;;;;11.14;57.91;100966.47;6208593;23;20426;-74
2023/04/20 08:27:29;;;;;;;0.00;0.00;;;;;;;11.27;58.20;100976.19;6239110;23;20008;-76
2023/04/20 08:30:02;;;;;;;0.00;0.00;;;;;;;11.51;57.28;100981.34;6239579;23;20003;-76
2023/04/20 08:32:28;;;;;;;0.00;0.00;;;;;;;11.80;56.93;100978.34;6213757;23;20002;-75
2023/04/20 08:34:55;;;;;;;0.00;0.00;;;;;;;12.46;55.63;100961.56;6188254;23;20107;-76
2023/04/20 08:37:24;;;;;;;0.00;0.00;;;;;;;13.18;53.76;100975.59;6210453;23;20036;-76
2023/04/20 08:39:50;;;;;;;0.00;0.00;;;;;;;14.44;51.54;100967.97;6191140;23;20072;-76
2023/04/20 08:42:21;;;;;;;0.00;0.00;;;;;;;15.88;46.98;100979.13;6210534;23;20008;-75
2023/04/20 08:44:49;;;;;;;0.00;0.00;;;;;;;16.48;43.83;100966.97;6216198;23;20012;-77
2023/04/20 08:47:16;;;;;;;0.00;0.00;;;;;;;16.93;42.75;100970.34;6211363;23;20004;-76
2023/04/20 08:49:48;;;;;;;0.00;0.00;;;;;;;18.18;40.76;100969.31;6215246;23;20058;-75
2023/04/20 08:52:18;;;;;;;0.00;0.00;;;;;;;19.85;37.18;100981.13;6236464;23;20054;-75
2023/04/20 08:54:54;;;;;;;;;;;;;;;;;;;;;
2023/04/20 08:57:20;;;;;;;0.00;0.00;;;;;;;23.40;31.28;100994.97;6213586;23;20067;-75
2023/04/20 08:59:45;;;;;;;0.00;0.00;;;;;;;24.81;28.93;100981.25;6213387;23;20028;-77
2023/04/20 09:02:12;;;;;;;0.00;0.00;;;;;;;25.79;27.28;101004.66;6243747;23;20368;-77
2023/04/20 09:04:39;;;;;;;0.00;0.00;;;;;;;26.55;25.98;100993.50;6210428;23;20292;-77
2023/04/20 09:07:12;;;;;;;0.00;0.00;;;;;;;27.64;25.47;100986.44;6241152;23;20031;-77
2023/04/20 09:09:37;;;;;;;0.00;0.00;;;;;;;28.42;23.97;100993.16;6210400;23;20004;-76
2023/04/20 09:12:07;;;;;;;0.00;0.00;;;;;;;29.19;23.07;100991.19;6190057;22;20004;-77
2023/04/20 09:14:53;;;;;;;0.00;0.00;;;;;;;28.82;22.92;101001.09;6210886;23;20308;-77
2023/04/20 09:17:36;;;;;;;0.00;0.00;;;;;;;28.93;22.34;100973.13;6213949;23;20015;-78
2023/04/20 09:20:20;;;;;;;0.00;0.00;;;;;;;29.84;22.10;100981.63;6212904;23;20004;-78
2023/04/20 09:22:49;;;;;;;0.00;0.00;;;;;;;30.71;21.14;100972.00;6193076;23;20015;-78
2023/04/20 09:25:25;;;;;;;0.00;0.00;;;;;;;31.61;19.81;100966.09;6187624;23;20403;-79
2023/04/20 09:28:16;;;;;;;0.00;0.00;;;;;;;31.70;19.29;100972.19;6214492;23;20000;-77
2023/04/20 09:30:44;;;;;;;0.00;0.00;;;;;;;32.91;19.08;100961.44;6213138;23;20000;-78
2023/04/20 09:33:19;;;;;;;0.00;0.00;;;;;;;34.07;18.52;100973.16;6214501;23;20027;-78
2023/04/20 09:36:04;;;;;;;0.00;0.00;;;;;;;34.89;16.90;100946.16;6209999;23;20008;-77
2023/04/20 09:38:30;;;;;;;0.00;0.00;;;;;;;35.05;15.97;100953.28;6236809;23;20070;-78
2023/04/20 09:41:04;;;;;;;0.00;0.00;;;;;;;34.63;15.41;100929.75;6240323;23;20028;-76
2023/04/20 09:43:31;;;;;;;0.00;0.00;;;;;;;34.32;15.35;100926.78;6212432;23;20015;-77
2023/04/20 09:46:01;;;;;;;0.00;0.00;;;;;;;35.06;15.48;100930.13;6160539;23;20568;-78
2023/04/20 09:48:27;;;;;;;0.00;0.00;;;;;;;35.53;14.44;100935.28;6213065;23;20065;-76
2023/04/20 09:50:56;;;;;;;0.00;0.00;;;;;;;35.26;14.15;100921.75;6210122;23;20079;-77
2023/04/20 09:53:27;;;;;;;0.00;0.00;;;;;;;35.57;14.34;100924.66;6191071;23;20004;-78
2023/04/20 09:55:57;;;;;;;0.00;0.00;;;;;;;35.97;13.80;100907.81;6183508;23;20026;-76
2023/04/20 09:58:22;;;;;;;0.00;0.00;;;;;;;36.19;14.24;100907.47;6190034;23;20008;-76
2023/04/20 10:00:48;;;;;;;0.00;0.00;;;;;;;37.11;14.15;100933.94;6211692;23;20060;-77
2023/04/20 10:03:20;;;;;;;0.00;0.00;;;;;;;38.06;13.50;100922.91;6189111;23;20689;-76
2023/04/20 10:05:46;;;;;;;0.00;0.00;;;;;;;38.34;12.40;100912.81;6159898;23;20092;-75
2023/04/20 10:08:11;;;;;;;0.00;0.00;;;;;;;38.44;12.73;100928.09;6241495;23;20036;-76
2023/04/20 10:10:51;;;;;;;0.00;0.00;;;;;;;39.44;12.36;100900.81;6189718;23;20108;-76
2023/04/20 10:13:22;;;;;;;0.00;0.00;;;;;;;39.13;11.25;100892.75;6257933;22;20065;-77
2023/04/20 10:15:47;;;;;;;0.00;0.00;;;;;;;39.47;11.51;100893.38;6218824;22;20011;-77
2023/04/20 10:18:23;;;;;;;0.00;0.00;;;;;;;39.83;11.62;100895.13;6217914;22;20022;-76
2023/04/20 10:20:50;;;;;;;0.00;0.00;;;;;;;39.96;10.86;100891.00;6242710;22;20004;-77
2023/04/20 10:23:23;;;;;;;0.00;0.00;;;;;;;39.95;10.83;100882.88;6269799;22;19995;-75
2023/04/20 10:26:08;;;;;;;0.00;0.00;;;;;;;40.21;10.59;100882.84;6249272;22;20003;-77
2023/04/20 10:28:40;;;;;;;0.00;0.00;;;;;;;40.20;10.39;100886.97;6243884;22;19999;-78
2023/04/20 10:31:07;;;;;;;0.00;0.00;;;;;;;40.55;9.84;100875.53;6214570;22;20011;-77
2023/04/20 10:33:33;;;;;;;0.00;0.00;;;;;;;40.56;10.01;100891.47;6218935;22;20346;-76
2023/04/20 10:35:58;;;;;;;0.00;0.00;;;;;;;40.75;9.94;100876.03;6245861;22;20012;-75
2023/04/20 10:38:31;;;;;;;0.00;0.00;;;;;;;40.89;9.83;100876.75;6241405;22;20019;-76
2023/04/20 10:41:06;;;;;;;0.00;0.00;;;;;;;41.38;9.68;100870.41;6245726;22;20011;-77
2023/04/20 10:43:34;;;;;;;0.00;0.00;;;;;;;40.95;8.67;100872.06;6218350;22;20039;-75
2023/04/20 10:46:00;;;;;;;0.00;0.00;;;;;;;40.37;9.72;100864.72;6244627;22;20090;-75
2023/04/20 10:48:28;;;;;;;0.00;0.00;;;;;;;40.39;9.67;100845.81;6241755;22;20031;-76
2023/04/20 10:50:55;;;;;;;0.00;0.00;;;;;;;41.03;9.15;100847.56;6219627;22;20027;-76
2023/04/20 10:53:22;;;;;;;0.00;0.00;;;;;;;41.44;9.13;100862.78;6243067;22;20597;-77
2023/04/20 10:56:13;;;;;;;0.00;0.00;;;;;;;41.67;9.31;100864.31;6245993;22;20055;-76
2023/04/20 10:58:39;;;;;;;0.00;0.00;;;;;;;42.09;8.73;100856.47;6267783;22;20015;-77
2023/04/20 11:01:05;;;;;;;0.00;0.00;;;;;;;41.57;8.86;100830.31;6219090;22;20010;-77
2023/04/20 11:03:33;;;;;;;0.00;0.00;;;;;;;41.94;8.60;100841.91;6216095;22;20007;-76
2023/04/20 11:06:03;;;;;;;0.00;0.00;;;;;;;42.14;8.27;100832.84;6219992;22;20019;-76
2023/04/20 11:08:39;;;;;;;0.00;0.00;;;;;;;42.30;8.27;100823.16;6241206;22;20027;-77
2023/04/20 11:11:16;;;;;;;0.00;0.00;;;;;;;42.74;7.92;100828.56;6221055;22;20015;-77
2023/04/20 11:13:48;;;;;;;0.00;0.00;;;;;;;42.69;7.63;100814.88;6239656;22;20015;-76
2023/04/20 11:16:15;;;;;;;0.00;0.00;;;;;;;42.08;7.30;100812.59;6243597;22;20064;-78
2023/04/20 11:18:50;;;;;;;0.00;0.00;;;;;;;41.60;7.62;100806.41;6243072;22;20011;-76
2023/04/20 11:21:15;;;;;;;0.00;0.00;;;;;;;41.89;7.74;100785.13;6243905;22;20065;-76
2023/04/20 11:23:42;;;;;;;0.00;0.00;;;;;;;42.54;7.32;100792.50;6214925;22;20323;-78
2023/04/20 11:26:11;;;;;;;0.00;0.00;;;;;;;42.38;7.57;100778.47;6220630;22;20095;-77
2023/04/20 11:28:58;;;;;;;0.00;0.00;;;;;;;42.11;7.79;100811.63;6240791;22;20937;-78
2023/04/20 11:31:33;;;;;;;;;;;;;;;;;;;;;
2023/04/20 11:33:59;;;;;;;0.00;0.00;;;;;;;43.14;7.14;100772.91;6268495;22;20082;-80
2023/04/20 11:37:01;;;;;;;;;;;;;;;;;;;;;
2023/04/20 11:39:55;;;;;;;;;;;;;;;;;;;;;
2023/04/20 11:42:39;;;;;;;0.00;0.00;;;;;;;44.20;6.67;100801.69;6264618;22;20030;-77
2023/04/20 11:45:41;;;;;;;;;;;;;;;;;;;;;
2023/04/20 11:48:34;;;;;;;;;;;;;;;;;;;;;
2023/04/20 11:51:36;;;;;;;0.00;0.00;;;;;;;44.92;6.37;100757.47;6270474;22;20083;-78
2023/04/20 11:54:52;;;;;;;;;;;;;;;;;;;;;
2023/04/20 12:00:34;;;;;;;0.00;0.00;;;;;;;46.46;6.04;100751.66;6254300;22;20057;-79
2023/04/20 12:06:17;;;;;;;;;;;;;;;;;;;;;
2023/04/20 12:09:05;;;;;;;;;;;;;;;;;;;;;
2023/04/20 12:11:53;;;;;;;0.00;0.00;;;;;;;46.05;5.98;100740.97;6275950;22;20083;-76
2023/04/20 12:14:31;;;;;;;;;;;;;;;;;;;;;
2023/04/20 12:17:09;;;;;;;0.00;0.00;;;;;;;47.49;6.04;100762.75;6277889;22;20086;-77